createdAt,value
2022-08-26T00:02:47.986Z,18.66
2022-08-26T00:05:56.746Z,18.72
2022-08-26T00:09:08.021Z,18.71
2022-08-26T00:12:16.614Z,18.72
2022-08-26T00:15:26.597Z,18.74
2022-08-26T00:18:38.778Z,18.67
2022-08-26T00:21:49.932Z,18.68
2022-08-26T00:24:58.262Z,18.53
2022-08-26T00:28:08.024Z,18.57
2022-08-26T00:31:20.911Z,18.53
2022-08-26T00:34:30.303Z,18.46
2022-08-26T00:37:39.075Z,18.40
2022-08-26T00:40:50.433Z,18.35
2022-08-26T00:43:58.840Z,18.37
2022-08-26T00:47:25.281Z,18.31
2022-08-26T00:50:49.406Z,18.32
2022-08-26T00:54:05.356Z,18.28
2022-08-26T00:57:18.268Z,18.13
2022-08-26T01:00:34.795Z,18.17
2022-08-26T01:03:47.016Z,18.13
2022-08-26T01:06:55.956Z,18.15
2022-08-26T01:10:09.218Z,18.14
2022-08-26T01:13:20.101Z,18.11
2022-08-26T01:16:28.697Z,18.00
2022-08-26T01:19:47.249Z,17.99
2022-08-26T01:23:01.626Z,17.97
2022-08-26T01:26:19.777Z,17.97
2022-08-26T01:29:32.071Z,17.87
2022-08-26T01:32:41.689Z,17.94
2022-08-26T01:35:51.309Z,17.98
2022-08-26T01:39:01.148Z,17.88
2022-08-26T01:42:17.851Z,17.87
2022-08-26T01:45:31.855Z,17.96
2022-08-26T01:48:43.830Z,17.94
2022-08-26T01:51:55.915Z,17.96
2022-08-26T01:55:09.153Z,17.69
2022-08-26T01:58:25.752Z,17.61
2022-08-26T02:01:36.233Z,17.56
2022-08-26T02:04:51.795Z,17.54
2022-08-26T02:08:00.049Z,17.58
2022-08-26T02:11:09.610Z,17.58
2022-08-26T02:14:22.659Z,17.58
2022-08-26T02:17:38.632Z,17.64
2022-08-26T02:20:47.051Z,17.68
2022-08-26T02:24:11.337Z,17.61
2022-08-26T02:27:28.211Z,17.55
2022-08-26T02:30:44.801Z,17.57
2022-08-26T02:33:53.307Z,17.58
2022-08-26T02:37:05.282Z,17.53
2022-08-26T02:40:16.318Z,17.48
2022-08-26T02:43:31.762Z,17.41
2022-08-26T02:46:41.751Z,17.46
2022-08-26T02:49:55.353Z,17.33
2022-08-26T02:53:03.710Z,17.24
2022-08-26T02:56:12.045Z,17.26
2022-08-26T02:59:22.939Z,17.27
2022-08-26T03:02:32.701Z,17.19
2022-08-26T03:05:42.460Z,17.14
2022-08-26T03:08:52.032Z,17.19
2022-08-26T03:12:00.527Z,17.20
2022-08-26T03:15:17.996Z,17.07
2022-08-26T03:18:26.593Z,17.02
2022-08-26T03:21:36.978Z,16.95
2022-08-26T03:24:46.085Z,16.93
2022-08-26T03:27:55.167Z,16.83
2022-08-26T03:31:03.817Z,16.77
2022-08-26T03:34:12.057Z,16.85
2022-08-26T03:37:21.624Z,16.67
2022-08-26T03:40:30.525Z,16.58
2022-08-26T03:43:39.075Z,16.51
2022-08-26T03:46:50.022Z,16.49
2022-08-26T03:50:01.439Z,16.46
2022-08-26T03:53:12.782Z,16.49
2022-08-26T03:56:21.872Z,16.42
2022-08-26T03:59:30.055Z,16.36
2022-08-26T04:02:39.898Z,16.30
2022-08-26T04:05:53.168Z,16.27
2022-08-26T04:09:05.670Z,16.28
2022-08-26T04:12:13.949Z,16.23
2022-08-26T04:15:22.846Z,16.18
2022-08-26T04:18:37.023Z,16.18
2022-08-26T04:21:47.169Z,16.22
2022-08-26T04:24:56.497Z,16.26
2022-08-26T04:28:05.068Z,16.22
2022-08-26T04:31:16.020Z,16.21
2022-08-26T04:34:28.740Z,16.30
2022-08-26T04:37:37.464Z,16.34
2022-08-26T04:40:46.819Z,16.38
2022-08-26T04:43:55.337Z,16.45
2022-08-26T04:47:04.706Z,16.45
2022-08-26T04:50:15.270Z,16.47
2022-08-26T04:53:32.199Z,16.49
2022-08-26T04:56:46.394Z,16.60
2022-08-26T04:59:56.350Z,16.68
2022-08-26T05:03:04.513Z,16.76
2022-08-26T05:06:16.516Z,16.72
2022-08-26T05:09:27.371Z,16.85
2022-08-26T05:12:35.573Z,16.96
2022-08-26T05:15:45.149Z,17.11
2022-08-26T05:18:54.928Z,17.18
2022-08-26T05:22:05.552Z,17.23
2022-08-26T05:25:13.739Z,17.35
2022-08-26T05:28:23.346Z,17.50
2022-08-26T05:31:34.178Z,17.65
2022-08-26T05:34:43.009Z,17.71
2022-08-26T05:37:52.695Z,17.92
2022-08-26T05:41:02.084Z,18.11
2022-08-26T05:44:16.119Z,18.29
2022-08-26T05:47:25.117Z,18.51
2022-08-26T05:50:33.308Z,18.74
2022-08-26T05:53:54.846Z,18.98
2022-08-26T05:57:03.244Z,19.27
2022-08-26T06:00:16.153Z,19.55
2022-08-26T06:03:25.338Z,19.88
2022-08-26T06:06:36.817Z,20.02
2022-08-26T06:09:47.675Z,20.26
2022-08-26T06:12:56.788Z,20.49
2022-08-26T06:16:09.316Z,20.69
2022-08-26T06:19:17.632Z,20.80
2022-08-26T06:22:43.514Z,20.86
2022-08-26T06:25:53.026Z,20.95
2022-08-26T06:29:01.714Z,21.24
2022-08-26T06:32:12.577Z,21.59
2022-08-26T06:35:20.790Z,21.85
2022-08-26T06:38:29.861Z,21.57
2022-08-26T06:41:46.310Z,21.99
2022-08-26T06:48:11.119Z,23.99
2022-08-26T06:51:23.577Z,24.60
2022-08-26T06:54:32.004Z,23.93
2022-08-26T06:57:42.099Z,23.71
2022-08-26T07:00:53.859Z,24.41
2022-08-26T07:04:07.903Z,23.95
2022-08-26T07:07:22.054Z,22.95
2022-08-26T07:10:31.308Z,22.51
2022-08-26T07:13:41.813Z,22.59
2022-08-26T07:16:51.813Z,22.95
2022-08-26T07:19:59.988Z,24.03
2022-08-26T07:23:11.733Z,26.46
2022-08-26T07:26:23.401Z,27.37
2022-08-26T07:29:35.473Z,26.42
2022-08-26T07:32:43.631Z,25.39
2022-08-26T07:35:51.734Z,25.45
2022-08-26T07:38:59.882Z,25.36
2022-08-26T07:42:08.732Z,25.14
2022-08-26T07:45:18.805Z,24.12
2022-08-26T07:48:27.216Z,24.62
2022-08-26T07:51:37.609Z,25.47
2022-08-26T07:54:46.022Z,24.66
2022-08-26T07:57:54.346Z,24.81
2022-08-26T08:01:05.173Z,24.43
2022-08-26T08:04:25.522Z,24.41
2022-08-26T08:07:44.327Z,24.83
2022-08-26T08:10:53.919Z,24.95
2022-08-26T08:14:02.587Z,25.85
2022-08-26T08:17:17.980Z,26.40
2022-08-26T08:20:29.838Z,25.70
2022-08-26T08:23:38.358Z,25.91
2022-08-26T08:26:47.435Z,25.85
2022-08-26T08:29:56.824Z,26.25
2022-08-26T08:33:06.606Z,26.28
2022-08-26T08:36:18.492Z,24.90
2022-08-26T08:39:29.067Z,26.25
2022-08-26T08:42:47.168Z,27.52
2022-08-26T08:46:03.585Z,26.13
2022-08-26T08:49:16.321Z,26.91
2022-08-26T08:52:32.164Z,27.32
2022-08-26T08:56:00.042Z,28.28
2022-08-26T08:59:17.330Z,28.23
2022-08-26T09:02:35.776Z,28.70
2022-08-26T09:05:51.400Z,28.39
2022-08-26T09:09:02.328Z,28.87
2022-08-26T09:12:20.397Z,29.45
2022-08-26T09:15:59.705Z,29.18
2022-08-26T09:19:19.162Z,28.46
2022-08-26T09:22:35.839Z,28.86
2022-08-26T09:25:51.369Z,28.35
2022-08-26T09:29:03.021Z,28.82
2022-08-26T09:32:21.210Z,29.78
2022-08-26T09:35:33.240Z,29.92
2022-08-26T09:38:44.219Z,29.52
2022-08-26T09:42:06.868Z,30.04
2022-08-26T09:45:17.022Z,31.16
2022-08-26T09:48:35.494Z,30.69
2022-08-26T09:51:44.435Z,31.12
2022-08-26T09:55:15.604Z,29.94
2022-08-26T09:58:37.957Z,29.59
2022-08-26T10:01:46.748Z,27.72
2022-08-26T10:04:58.614Z,27.23
2022-08-26T10:08:25.199Z,27.74
2022-08-26T10:11:44.839Z,28.32
2022-08-26T10:15:04.439Z,27.31
2022-08-26T10:18:19.168Z,27.12
2022-08-26T10:21:34.197Z,27.39
2022-08-26T10:24:49.839Z,27.90
2022-08-26T10:28:11.984Z,28.73
2022-08-26T10:31:29.357Z,28.59
2022-08-26T10:34:37.996Z,28.96
2022-08-26T10:37:50.789Z,27.26
2022-08-26T10:41:09.911Z,27.05
2022-08-26T10:44:21.919Z,27.97
2022-08-26T10:47:44.217Z,28.18
2022-08-26T10:50:53.368Z,28.46
2022-08-26T10:54:11.906Z,28.17
2022-08-26T10:57:34.968Z,27.93
2022-08-26T11:01:10.825Z,28.20
2022-08-26T11:04:45.628Z,27.73
2022-08-26T11:08:46.383Z,28.01
2022-08-26T11:11:55.157Z,28.49
2022-08-26T11:15:05.253Z,28.37
2022-08-26T11:18:48.821Z,28.74
2022-08-26T11:22:11.040Z,29.20
2022-08-26T11:25:22.797Z,29.62
2022-08-26T11:28:39.665Z,29.64
2022-08-26T11:31:56.851Z,30.09
2022-08-26T11:35:09.944Z,29.76
2022-08-26T11:38:30.613Z,29.89
2022-08-26T11:41:39.889Z,30.05
2022-08-26T11:44:49.248Z,29.22
2022-08-26T11:47:58.123Z,29.24
2022-08-26T11:51:11.838Z,28.43
2022-08-26T11:54:35.663Z,28.79
2022-08-26T11:57:48.140Z,28.80
2022-08-26T12:01:01.742Z,29.03
2022-08-26T12:04:23.184Z,28.28
2022-08-26T12:07:33.567Z,28.29
2022-08-26T12:10:43.340Z,28.63
2022-08-26T12:14:00.794Z,28.81
2022-08-26T12:17:15.215Z,28.68
2022-08-26T12:20:48.078Z,29.09
2022-08-26T12:24:00.348Z,29.42
2022-08-26T12:27:21.966Z,29.72
2022-08-26T12:30:31.067Z,29.05
2022-08-26T12:33:41.158Z,29.49
2022-08-26T12:36:55.238Z,30.26
2022-08-26T12:40:35.604Z,29.87
2022-08-26T12:43:46.837Z,29.60
2022-08-26T12:47:01.848Z,28.87
2022-08-26T12:50:21.965Z,29.32
2022-08-26T12:53:33.941Z,29.27
2022-08-26T12:56:45.252Z,29.57
2022-08-26T12:59:54.284Z,28.66
2022-08-26T13:03:03.971Z,28.55
2022-08-26T13:06:29.608Z,28.86
2022-08-26T13:09:38.498Z,28.69
2022-08-26T13:12:48.961Z,28.32
2022-08-26T13:15:57.337Z,28.35
2022-08-26T13:19:10.227Z,28.66
2022-08-26T13:22:24.179Z,29.05
2022-08-26T13:25:32.589Z,29.34
2022-08-26T13:28:43.175Z,29.37
2022-08-26T13:31:52.255Z,29.28
2022-08-26T13:35:00.719Z,29.45
2022-08-26T13:38:30.879Z,29.43
2022-08-26T13:41:42.345Z,29.45
2022-08-26T13:44:55.325Z,29.45
2022-08-26T13:48:04.679Z,29.40
2022-08-26T13:51:12.982Z,28.97
2022-08-26T13:54:21.877Z,28.86
2022-08-26T13:57:31.031Z,29.00
2022-08-26T14:00:42.823Z,29.06
2022-08-26T14:03:51.341Z,29.24
2022-08-26T14:06:59.624Z,29.62
2022-08-26T14:10:09.494Z,29.68
2022-08-26T14:13:18.346Z,29.85
2022-08-26T14:16:33.364Z,29.86
2022-08-26T14:19:46.909Z,29.23
2022-08-26T14:23:14.406Z,28.55
2022-08-26T14:26:29.094Z,28.49
2022-08-26T14:29:37.881Z,28.41
2022-08-26T14:32:52.394Z,28.26
2022-08-26T14:36:15.032Z,28.34
2022-08-26T14:39:23.409Z,28.55
2022-08-26T14:42:32.435Z,28.60
2022-08-26T14:45:45.711Z,28.58
2022-08-26T14:48:56.699Z,28.39
2022-08-26T14:52:09.882Z,28.07
2022-08-26T14:55:17.301Z,27.78
2022-08-26T14:58:25.533Z,27.53
2022-08-26T15:01:39.368Z,27.51
2022-08-26T15:04:50.487Z,27.50
2022-08-26T15:07:59.015Z,27.78
2022-08-26T15:11:07.621Z,27.82
2022-08-26T15:14:19.494Z,27.87
2022-08-26T15:17:28.428Z,27.67
2022-08-26T15:20:38.201Z,27.16
2022-08-26T15:23:47.854Z,27.04
2022-08-26T15:26:56.330Z,27.39
2022-08-26T15:30:06.331Z,27.62
2022-08-26T15:33:14.942Z,27.77
2022-08-26T15:36:25.152Z,27.88
2022-08-26T15:39:33.874Z,28.03
2022-08-26T15:42:42.067Z,28.11
2022-08-26T15:45:50.601Z,28.08
2022-08-26T15:48:58.984Z,28.09
2022-08-26T15:52:09.398Z,27.66
2022-08-26T15:55:17.853Z,27.67
2022-08-26T15:58:27.926Z,27.75
2022-08-26T16:01:37.448Z,27.73
2022-08-26T16:04:45.810Z,27.64
2022-08-26T16:07:55.400Z,27.70
2022-08-26T16:11:05.866Z,27.67
2022-08-26T16:14:15.750Z,27.72
2022-08-26T16:17:24.232Z,27.68
2022-08-26T16:20:36.486Z,27.57
2022-08-26T16:23:46.844Z,27.35
2022-08-26T16:26:55.830Z,27.24
2022-08-26T16:30:07.347Z,27.13
2022-08-26T16:33:21.626Z,26.94
2022-08-26T16:36:39.719Z,26.78
2022-08-26T16:39:49.620Z,26.78
2022-08-26T16:42:58.037Z,26.81
2022-08-26T16:46:07.961Z,26.85
2022-08-26T16:49:16.445Z,26.77
2022-08-26T16:52:25.016Z,26.72
2022-08-26T16:55:40.102Z,26.68
2022-08-26T16:58:49.052Z,26.57
2022-08-26T17:01:57.569Z,26.43
2022-08-26T17:05:07.300Z,26.35
2022-08-26T17:08:27.488Z,26.31
2022-08-26T17:11:38.933Z,26.20
2022-08-26T17:14:47.371Z,26.08
2022-08-26T17:17:57.420Z,25.96
2022-08-26T17:21:10.537Z,25.86
2022-08-26T17:24:18.986Z,25.82
2022-08-26T17:27:28.542Z,25.71
2022-08-26T17:30:37.158Z,25.70
2022-08-26T17:33:48.901Z,25.51
2022-08-26T17:37:01.953Z,25.32
2022-08-26T17:40:16.010Z,25.18
2022-08-26T17:43:26.680Z,25.05
2022-08-26T17:46:38.166Z,24.97
2022-08-26T17:49:46.839Z,24.79
2022-08-26T17:52:55.193Z,24.70
2022-08-26T17:56:07.056Z,24.46
2022-08-26T17:59:18.690Z,24.40
2022-08-26T18:05:48.784Z,23.86
2022-08-26T18:08:58.798Z,23.76
2022-08-26T18:12:08.316Z,23.87
2022-08-26T18:15:20.458Z,23.85
2022-08-26T18:18:28.978Z,23.45
2022-08-26T18:21:38.507Z,23.26
2022-08-26T18:24:52.820Z,23.31
2022-08-26T18:28:08.044Z,23.09
2022-08-26T18:31:18.448Z,22.99
2022-08-26T18:34:31.559Z,23.08
2022-08-26T18:37:41.688Z,23.11
2022-08-26T18:40:51.966Z,23.19
2022-08-26T18:44:01.148Z,23.09
2022-08-26T18:47:10.976Z,23.07
2022-08-26T18:50:19.982Z,23.07
2022-08-26T18:53:31.007Z,23.01
2022-08-26T18:56:42.433Z,23.06
2022-08-26T18:59:51.113Z,22.96
2022-08-26T19:03:00.913Z,22.93
2022-08-26T19:06:13.541Z,22.73
2022-08-26T19:09:22.493Z,22.65
2022-08-26T19:12:31.429Z,22.58
2022-08-26T19:15:45.911Z,22.68
2022-08-26T19:18:59.056Z,22.60
2022-08-26T19:22:08.269Z,22.75
2022-08-26T19:25:17.603Z,22.67
2022-08-26T19:28:26.033Z,22.35
2022-08-26T19:31:34.566Z,22.16
2022-08-26T19:34:45.439Z,21.51
2022-08-26T19:37:53.864Z,20.77
2022-08-26T19:41:02.536Z,20.63
2022-08-26T19:44:34.133Z,20.20
2022-08-26T19:47:43.164Z,20.07
2022-08-26T19:50:53.022Z,19.67
2022-08-26T19:54:02.582Z,18.26
2022-08-26T19:57:11.889Z,17.29
2022-08-26T20:00:26.851Z,17.19
2022-08-26T20:03:36.684Z,16.99
2022-08-26T20:06:46.444Z,16.62
2022-08-26T20:10:00.739Z,16.62
2022-08-26T20:13:09.571Z,16.62
2022-08-26T20:16:19.043Z,16.64
2022-08-26T20:19:45.451Z,16.75
2022-08-26T20:22:55.714Z,17.00
2022-08-26T20:26:04.409Z,16.96
2022-08-26T20:29:18.437Z,17.06
2022-08-26T20:32:27.628Z,17.05
2022-08-26T20:35:36.443Z,17.06
2022-08-26T20:38:46.654Z,17.02
2022-08-26T20:41:55.099Z,17.07
2022-08-26T20:45:04.127Z,17.14
2022-08-26T20:48:12.529Z,17.08
2022-08-26T20:51:22.922Z,17.11
2022-08-26T20:54:32.848Z,17.10
2022-08-26T20:57:42.090Z,17.31
2022-08-26T21:00:50.702Z,17.31
2022-08-26T21:03:59.291Z,17.38
2022-08-26T21:07:08.503Z,17.41
2022-08-26T21:10:18.597Z,17.34
2022-08-26T21:13:26.975Z,17.24
2022-08-26T21:16:36.688Z,17.24
2022-08-26T21:19:46.774Z,17.17
2022-08-26T21:22:55.193Z,17.05
2022-08-26T21:26:07.858Z,17.15
2022-08-26T21:29:16.333Z,17.06
2022-08-26T21:32:25.273Z,17.04
2022-08-26T21:35:33.585Z,16.89
2022-08-26T21:38:43.076Z,16.86
2022-08-26T21:41:53.373Z,16.90
2022-08-26T21:45:02.983Z,16.96
2022-08-26T21:48:11.299Z,17.07
2022-08-26T21:51:22.544Z,17.31
2022-08-26T21:54:30.740Z,17.15
2022-08-26T21:57:40.866Z,17.06
2022-08-26T22:00:52.012Z,17.05
2022-08-26T22:04:00.410Z,16.87
2022-08-26T22:07:08.586Z,16.80
2022-08-26T22:10:16.854Z,16.76
2022-08-26T22:13:30.560Z,16.78
2022-08-26T22:16:39.340Z,16.85
2022-08-26T22:19:47.910Z,16.71
2022-08-26T22:22:58.075Z,16.56
2022-08-26T22:26:08.512Z,16.76
2022-08-26T22:29:19.420Z,16.75
2022-08-26T22:32:28.261Z,16.66
2022-08-26T22:35:40.459Z,16.54
2022-08-26T22:38:52.375Z,16.68
2022-08-26T22:42:03.660Z,16.81
2022-08-26T22:45:14.457Z,16.71
2022-08-26T22:48:26.681Z,16.81
2022-08-26T22:51:35.893Z,16.79
2022-08-26T22:54:45.209Z,16.71
2022-08-26T22:57:53.502Z,16.55
2022-08-26T23:01:06.194Z,16.36
2022-08-26T23:04:15.533Z,16.35
2022-08-26T23:07:26.488Z,16.45
2022-08-26T23:10:36.810Z,16.70
2022-08-26T23:13:45.301Z,16.41
2022-08-26T23:16:55.354Z,16.44
2022-08-26T23:20:09.068Z,16.54
2022-08-26T23:23:18.617Z,16.36
2022-08-26T23:26:27.141Z,16.21
2022-08-26T23:29:39.709Z,16.30
2022-08-26T23:32:49.772Z,16.31
2022-08-26T23:35:57.562Z,16.35
2022-08-26T23:39:07.197Z,16.41
2022-08-26T23:42:16.006Z,16.46
2022-08-26T23:45:25.944Z,16.37
2022-08-26T23:48:36.878Z,16.31
2022-08-26T23:52:02.800Z,16.32
2022-08-26T23:55:12.700Z,16.30
2022-08-26T23:58:22.632Z,16.26
